sensor_id;sensor_type;location;lat;lon;timestamp;temperature;humidity
24148;DHT22;12309;51.450;-2.624;2023-10-13T00:00:56;16.10;99.90
24148;DHT22;12309;51.450;-2.624;2023-10-13T00:03:23;16.00;99.90
24148;DHT22;12309;51.450;-2.624;2023-10-13T00:05:49;16.30;99.90
24148;DHT22;12309;51.450;-2.624;2023-10-13T00:08:18;16.70;99.90
24148;DHT22;12309;51.450;-2.624;2023-10-13T00:13:13;16.70;99.90
24148;DHT22;12309;51.450;-2.624;2023-10-13T00:15:42;16.70;99.90
24148;DHT22;12309;51.450;-2.624;2023-10-13T00:18:31;16.70;99.90
24148;DHT22;12309;51.450;-2.624;2023-10-13T00:21:01;16.60;99.90
24148;DHT22;12309;51.450;-2.624;2023-10-13T00:23:38;16.80;99.90
24148;DHT22;12309;51.450;-2.624;2023-10-13T00:28:34;16.90;99.90
24148;DHT22;12309;51.450;-2.624;2023-10-13T00:31:23;16.60;99.90
24148;DHT22;12309;51.450;-2.624;2023-10-13T00:33:49;16.50;99.90
24148;DHT22;12309;51.450;-2.624;2023-10-13T00:36:17;16.50;99.90
24148;DHT22;12309;51.450;-2.624;2023-10-13T00:38:45;16.60;99.90
24148;DHT22;12309;51.450;-2.624;2023-10-13T00:41:14;16.60;99.90
24148;DHT22;12309;51.450;-2.624;2023-10-13T00:43:48;16.20;99.90
24148;DHT22;12309;51.450;-2.624;2023-10-13T00:46:35;16.50;99.90
24148;DHT22;12309;51.450;-2.624;2023-10-13T00:49:03;16.50;99.90
24148;DHT22;12309;51.450;-2.624;2023-10-13T00:51:32;16.50;99.90
24148;DHT22;12309;51.450;-2.624;2023-10-13T00:54:05;16.30;99.90
24148;DHT22;12309;51.450;-2.624;2023-10-13T00:56:40;16.30;99.90
24148;DHT22;12309;51.450;-2.624;2023-10-13T00:59:13;16.20;99.90
24148;DHT22;12309;51.450;-2.624;2023-10-13T01:01:39;16.20;99.90
24148;DHT22;12309;51.450;-2.624;2023-10-13T01:04:09;16.30;99.90
24148;DHT22;12309;51.450;-2.624;2023-10-13T01:06:38;16.30;99.90
24148;DHT22;12309;51.450;-2.624;2023-10-13T01:09:08;16.20;99.90
24148;DHT22;12309;51.450;-2.624;2023-10-13T01:11:40;16.20;99.90
24148;DHT22;12309;51.450;-2.624;2023-10-13T01:14:06;16.20;99.90
24148;DHT22;12309;51.450;-2.624;2023-10-13T01:16:32;16.20;99.90
24148;DHT22;12309;51.450;-2.624;2023-10-13T01:18:58;16.00;99.90
24148;DHT22;12309;51.450;-2.624;2023-10-13T01:21:26;16.20;99.90
24148;DHT22;12309;51.450;-2.624;2023-10-13T01:23:55;16.40;99.90
24148;DHT22;12309;51.450;-2.624;2023-10-13T01:26:21;16.00;99.90
24148;DHT22;12309;51.450;-2.624;2023-10-13T01:31:16;16.30;99.90
24148;DHT22;12309;51.450;-2.624;2023-10-13T01:33:55;16.10;99.90
24148;DHT22;12309;51.450;-2.624;2023-10-13T01:36:27;16.30;99.90
24148;DHT22;12309;51.450;-2.624;2023-10-13T01:38:53;16.10;99.90
24148;DHT22;12309;51.450;-2.624;2023-10-13T01:41:22;16.10;99.90
24148;DHT22;12309;51.450;-2.624;2023-10-13T01:43:48;16.10;99.90
24148;DHT22;12309;51.450;-2.624;2023-10-13T01:46:14;16.10;99.90
24148;DHT22;12309;51.450;-2.624;2023-10-13T01:48:47;15.90;99.90
24148;DHT22;12309;51.450;-2.624;2023-10-13T01:51:13;16.10;99.90
24148;DHT22;12309;51.450;-2.624;2023-10-13T01:53:40;16.10;99.90
24148;DHT22;12309;51.450;-2.624;2023-10-13T01:56:09;16.00;99.90
24148;DHT22;12309;51.450;-2.624;2023-10-13T01:58:38;16.10;99.90
24148;DHT22;12309;51.450;-2.624;2023-10-13T02:01:08;16.00;99.90
24148;DHT22;12309;51.450;-2.624;2023-10-13T02:03:35;16.20;99.90
24148;DHT22;12309;51.450;-2.624;2023-10-13T02:08:44;16.10;99.90
24148;DHT22;12309;51.450;-2.624;2023-10-13T02:11:10;16.30;99.90
24148;DHT22;12309;51.450;-2.624;2023-10-13T02:13:36;16.20;99.90
24148;DHT22;12309;51.450;-2.624;2023-10-13T02:18:44;16.30;99.90
24148;DHT22;12309;51.450;-2.624;2023-10-13T02:23:42;16.10;99.90
24148;DHT22;12309;51.450;-2.624;2023-10-13T02:26:12;16.40;99.90
24148;DHT22;12309;51.450;-2.624;2023-10-13T02:31:07;16.70;99.90
24148;DHT22;12309;51.450;-2.624;2023-10-13T02:33:33;16.40;99.90
24148;DHT22;12309;51.450;-2.624;2023-10-13T02:36:01;16.70;99.90
24148;DHT22;12309;51.450;-2.624;2023-10-13T02:38:33;16.50;99.90
24148;DHT22;12309;51.450;-2.624;2023-10-13T02:41:02;16.80;99.90
24148;DHT22;12309;51.450;-2.624;2023-10-13T02:43:35;17.10;99.90
24148;DHT22;12309;51.450;-2.624;2023-10-13T02:46:01;17.10;99.90
24148;DHT22;12309;51.450;-2.624;2023-10-13T02:48:27;17.30;99.90
24148;DHT22;12309;51.450;-2.624;2023-10-13T02:51:06;17.40;99.90
24148;DHT22;12309;51.450;-2.624;2023-10-13T02:53:41;17.50;99.90
24148;DHT22;12309;51.450;-2.624;2023-10-13T02:56:07;17.70;99.90
24148;DHT22;12309;51.450;-2.624;2023-10-13T02:58:33;17.70;99.90
24148;DHT22;12309;51.450;-2.624;2023-10-13T03:01:08;17.60;99.90
24148;DHT22;12309;51.450;-2.624;2023-10-13T03:03:48;17.60;99.90
24148;DHT22;12309;51.450;-2.624;2023-10-13T03:06:20;17.70;99.90
24148;DHT22;12309;51.450;-2.624;2023-10-13T03:08:51;17.70;99.90
24148;DHT22;12309;51.450;-2.624;2023-10-13T03:11:17;17.70;99.90
24148;DHT22;12309;51.450;-2.624;2023-10-13T03:13:47;17.70;99.90
24148;DHT22;12309;51.450;-2.624;2023-10-13T03:16:16;17.80;99.90
24148;DHT22;12309;51.450;-2.624;2023-10-13T03:18:48;17.70;99.90
24148;DHT22;12309;51.450;-2.624;2023-10-13T03:21:20;17.80;99.90
24148;DHT22;12309;51.450;-2.624;2023-10-13T03:24:01;17.70;99.90
24148;DHT22;12309;51.450;-2.624;2023-10-13T03:26:31;17.70;99.90
24148;DHT22;12309;51.450;-2.624;2023-10-13T03:29:03;17.50;99.90
24148;DHT22;12309;51.450;-2.624;2023-10-13T03:34:04;17.80;99.90
24148;DHT22;12309;51.450;-2.624;2023-10-13T03:36:29;17.80;99.90
24148;DHT22;12309;51.450;-2.624;2023-10-13T03:39:14;17.90;99.90
24148;DHT22;12309;51.450;-2.624;2023-10-13T03:41:40;18.00;99.90
24148;DHT22;12309;51.450;-2.624;2023-10-13T03:46:43;18.00;99.90
24148;DHT22;12309;51.450;-2.624;2023-10-13T03:49:10;18.00;99.90
24148;DHT22;12309;51.450;-2.624;2023-10-13T03:51:41;17.80;99.90
24148;DHT22;12309;51.450;-2.624;2023-10-13T03:54:08;17.90;99.90
24148;DHT22;12309;51.450;-2.624;2023-10-13T03:56:35;18.00;99.90
24148;DHT22;12309;51.450;-2.624;2023-10-13T03:59:08;17.90;99.90
24148;DHT22;12309;51.450;-2.624;2023-10-13T04:01:45;17.90;99.90
24148;DHT22;12309;51.450;-2.624;2023-10-13T04:04:17;17.70;99.90
24148;DHT22;12309;51.450;-2.624;2023-10-13T04:07:03;17.80;99.90
24148;DHT22;12309;51.450;-2.624;2023-10-13T04:09:38;17.90;99.90
24148;DHT22;12309;51.450;-2.624;2023-10-13T04:12:08;17.90;99.90
24148;DHT22;12309;51.450;-2.624;2023-10-13T04:14:52;17.80;99.90
24148;DHT22;12309;51.450;-2.624;2023-10-13T04:17:30;17.90;99.90
24148;DHT22;12309;51.450;-2.624;2023-10-13T04:20:00;17.90;99.90
24148;DHT22;12309;51.450;-2.624;2023-10-13T04:22:39;18.00;99.90
24148;DHT22;12309;51.450;-2.624;2023-10-13T04:25:14;18.00;99.90
24148;DHT22;12309;51.450;-2.624;2023-10-13T04:28:13;18.00;99.90
24148;DHT22;12309;51.450;-2.624;2023-10-13T04:30:43;18.00;99.90
24148;DHT22;12309;51.450;-2.624;2023-10-13T04:33:21;18.20;99.90
24148;DHT22;12309;51.450;-2.624;2023-10-13T04:38:46;18.00;99.90
24148;DHT22;12309;51.450;-2.624;2023-10-13T04:41:34;18.30;99.90
24148;DHT22;12309;51.450;-2.624;2023-10-13T04:44:18;18.10;99.90
24148;DHT22;12309;51.450;-2.624;2023-10-13T04:46:57;18.20;99.90
24148;DHT22;12309;51.450;-2.624;2023-10-13T04:49:30;18.60;99.90
24148;DHT22;12309;51.450;-2.624;2023-10-13T04:52:15;18.50;99.90
24148;DHT22;12309;51.450;-2.624;2023-10-13T04:55:11;18.60;99.90
24148;DHT22;12309;51.450;-2.624;2023-10-13T04:58:03;18.50;99.90
24148;DHT22;12309;51.450;-2.624;2023-10-13T05:01:04;18.60;99.90
24148;DHT22;12309;51.450;-2.624;2023-10-13T05:03:49;18.30;99.90
24148;DHT22;12309;51.450;-2.624;2023-10-13T05:06:33;18.50;99.90
24148;DHT22;12309;51.450;-2.624;2023-10-13T05:09:12;18.50;99.90
24148;DHT22;12309;51.450;-2.624;2023-10-13T05:11:56;18.60;99.90
24148;DHT22;12309;51.450;-2.624;2023-10-13T05:14:40;18.60;99.90
24148;DHT22;12309;51.450;-2.624;2023-10-13T05:17:24;18.60;99.90
24148;DHT22;12309;51.450;-2.624;2023-10-13T05:20:09;18.70;99.90
24148;DHT22;12309;51.450;-2.624;2023-10-13T05:22:53;18.40;99.90
24148;DHT22;12309;51.450;-2.624;2023-10-13T05:25:38;19.20;99.90
24148;DHT22;12309;51.450;-2.624;2023-10-13T05:28:23;18.70;99.90
24148;DHT22;12309;51.450;-2.624;2023-10-13T05:31:07;18.70;99.90
24148;DHT22;12309;51.450;-2.624;2023-10-13T05:33:52;18.80;99.90
24148;DHT22;12309;51.450;-2.624;2023-10-13T05:36:36;18.70;99.90
24148;DHT22;12309;51.450;-2.624;2023-10-13T05:39:21;18.70;99.90
24148;DHT22;12309;51.450;-2.624;2023-10-13T05:42:05;18.80;99.90
24148;DHT22;12309;51.450;-2.624;2023-10-13T05:44:49;18.80;99.90
24148;DHT22;12309;51.450;-2.624;2023-10-13T05:47:33;18.80;99.90
24148;DHT22;12309;51.450;-2.624;2023-10-13T05:50:13;18.90;99.90
24148;DHT22;12309;51.450;-2.624;2023-10-13T05:52:55;19.00;99.90
24148;DHT22;12309;51.450;-2.624;2023-10-13T05:55:24;18.80;99.90
24148;DHT22;12309;51.450;-2.624;2023-10-13T05:58:08;18.90;99.90
24148;DHT22;12309;51.450;-2.624;2023-10-13T06:00:53;18.90;99.90
24148;DHT22;12309;51.450;-2.624;2023-10-13T06:03:37;18.90;99.90
24148;DHT22;12309;51.450;-2.624;2023-10-13T06:06:21;18.90;99.90
24148;DHT22;12309;51.450;-2.624;2023-10-13T06:09:06;18.90;99.90
24148;DHT22;12309;51.450;-2.624;2023-10-13T06:11:49;18.90;99.90
24148;DHT22;12309;51.450;-2.624;2023-10-13T06:14:33;18.90;99.90
24148;DHT22;12309;51.450;-2.624;2023-10-13T06:17:18;18.90;99.90
24148;DHT22;12309;51.450;-2.624;2023-10-13T06:20:02;18.90;99.90
24148;DHT22;12309;51.450;-2.624;2023-10-13T06:22:49;19.00;99.90
24148;DHT22;12309;51.450;-2.624;2023-10-13T06:25:34;19.00;99.90
24148;DHT22;12309;51.450;-2.624;2023-10-13T06:28:18;18.80;99.90
24148;DHT22;12309;51.450;-2.624;2023-10-13T06:31:05;19.00;99.90
24148;DHT22;12309;51.450;-2.624;2023-10-13T06:33:34;19.00;99.90
24148;DHT22;12309;51.450;-2.624;2023-10-13T06:36:02;19.00;99.90
24148;DHT22;12309;51.450;-2.624;2023-10-13T06:38:27;18.90;99.90
24148;DHT22;12309;51.450;-2.624;2023-10-13T06:41:02;18.90;99.90
24148;DHT22;12309;51.450;-2.624;2023-10-13T06:43:34;18.90;99.90
24148;DHT22;12309;51.450;-2.624;2023-10-13T06:46:09;18.90;99.90
24148;DHT22;12309;51.450;-2.624;2023-10-13T06:48:40;19.00;99.90
24148;DHT22;12309;51.450;-2.624;2023-10-13T06:51:07;19.00;99.90
24148;DHT22;12309;51.450;-2.624;2023-10-13T06:53:49;19.00;99.90
24148;DHT22;12309;51.450;-2.624;2023-10-13T06:56:15;18.90;99.90
24148;DHT22;12309;51.450;-2.624;2023-10-13T06:58:54;18.90;99.90
24148;DHT22;12309;51.450;-2.624;2023-10-13T07:01:29;18.90;99.90
24148;DHT22;12309;51.450;-2.624;2023-10-13T07:03:55;19.00;99.90
24148;DHT22;12309;51.450;-2.624;2023-10-13T07:06:27;19.20;99.90
24148;DHT22;12309;51.450;-2.624;2023-10-13T07:08:53;19.10;99.90
24148;DHT22;12309;51.450;-2.624;2023-10-13T07:11:25;19.10;99.90
24148;DHT22;12309;51.450;-2.624;2023-10-13T07:14:04;19.10;99.90
24148;DHT22;12309;51.450;-2.624;2023-10-13T07:16:57;19.20;99.90
24148;DHT22;12309;51.450;-2.624;2023-10-13T07:19:27;19.20;99.90
24148;DHT22;12309;51.450;-2.624;2023-10-13T07:21:56;19.30;99.90
24148;DHT22;12309;51.450;-2.624;2023-10-13T07:24:26;19.30;99.90
24148;DHT22;12309;51.450;-2.624;2023-10-13T07:26:59;19.30;99.90
24148;DHT22;12309;51.450;-2.624;2023-10-13T07:29:30;19.20;99.90
24148;DHT22;12309;51.450;-2.624;2023-10-13T07:31:56;19.30;99.90
24148;DHT22;12309;51.450;-2.624;2023-10-13T07:34:21;19.20;99.90
24148;DHT22;12309;51.450;-2.624;2023-10-13T07:36:55;19.30;99.90
24148;DHT22;12309;51.450;-2.624;2023-10-13T07:39:30;19.30;99.90
24148;DHT22;12309;51.450;-2.624;2023-10-13T07:42:00;19.40;99.90
24148;DHT22;12309;51.450;-2.624;2023-10-13T07:44:52;19.40;99.90
24148;DHT22;12309;51.450;-2.624;2023-10-13T07:47:21;19.40;99.90
24148;DHT22;12309;51.450;-2.624;2023-10-13T07:49:50;19.40;99.90
24148;DHT22;12309;51.450;-2.624;2023-10-13T07:52:16;19.30;99.90
24148;DHT22;12309;51.450;-2.624;2023-10-13T07:54:49;19.30;99.90
24148;DHT22;12309;51.450;-2.624;2023-10-13T07:57:22;19.40;99.90
24148;DHT22;12309;51.450;-2.624;2023-10-13T07:59:55;19.30;99.90
24148;DHT22;12309;51.450;-2.624;2023-10-13T08:02:32;19.20;99.90
24148;DHT22;12309;51.450;-2.624;2023-10-13T08:05:17;20.30;99.90
24148;DHT22;12309;51.450;-2.624;2023-10-13T08:08:05;19.20;99.90
24148;DHT22;12309;51.450;-2.624;2023-10-13T08:10:40;19.40;99.90
24148;DHT22;12309;51.450;-2.624;2023-10-13T08:13:07;19.50;99.90
24148;DHT22;12309;51.450;-2.624;2023-10-13T08:15:42;19.50;99.90
24148;DHT22;12309;51.450;-2.624;2023-10-13T08:18:15;19.50;99.90
24148;DHT22;12309;51.450;-2.624;2023-10-13T08:20:57;19.50;99.90
24148;DHT22;12309;51.450;-2.624;2023-10-13T08:23:29;19.40;99.90
24148;DHT22;12309;51.450;-2.624;2023-10-13T08:26:13;19.40;99.90
24148;DHT22;12309;51.450;-2.624;2023-10-13T08:28:58;19.70;99.90
24148;DHT22;12309;51.450;-2.624;2023-10-13T08:31:45;19.40;99.90
24148;DHT22;12309;51.450;-2.624;2023-10-13T08:34:31;19.30;99.90
24148;DHT22;12309;51.450;-2.624;2023-10-13T08:37:27;19.10;99.90
24148;DHT22;12309;51.450;-2.624;2023-10-13T08:39:55;19.20;99.90
24148;DHT22;12309;51.450;-2.624;2023-10-13T08:45:16;19.20;99.90
24148;DHT22;12309;51.450;-2.624;2023-10-13T08:47:52;19.20;99.90
24148;DHT22;12309;51.450;-2.624;2023-10-13T08:50:39;19.30;99.90
24148;DHT22;12309;51.450;-2.624;2023-10-13T08:56:02;19.50;99.90
24148;DHT22;12309;51.450;-2.624;2023-10-13T09:01:13;19.60;99.90
24148;DHT22;12309;51.450;-2.624;2023-10-13T09:04:00;19.60;99.90
24148;DHT22;12309;51.450;-2.624;2023-10-13T09:06:51;19.60;99.90
24148;DHT22;12309;51.450;-2.624;2023-10-13T09:09:29;19.60;99.90
24148;DHT22;12309;51.450;-2.624;2023-10-13T09:12:17;20.10;99.90
24148;DHT22;12309;51.450;-2.624;2023-10-13T09:14:53;19.60;99.90
24148;DHT22;12309;51.450;-2.624;2023-10-13T09:17:32;19.70;99.90
24148;DHT22;12309;51.450;-2.624;2023-10-13T09:20:09;19.60;99.90
24148;DHT22;12309;51.450;-2.624;2023-10-13T09:22:54;19.80;99.90
24148;DHT22;12309;51.450;-2.624;2023-10-13T09:25:34;19.80;99.90
24148;DHT22;12309;51.450;-2.624;2023-10-13T09:28:10;19.80;99.90
24148;DHT22;12309;51.450;-2.624;2023-10-13T09:30:50;20.00;99.90
24148;DHT22;12309;51.450;-2.624;2023-10-13T09:33:23;20.00;99.90
24148;DHT22;12309;51.450;-2.624;2023-10-13T09:36:15;20.00;99.90
24148;DHT22;12309;51.450;-2.624;2023-10-13T09:38:42;20.10;99.90
24148;DHT22;12309;51.450;-2.624;2023-10-13T09:41:14;20.20;99.90
24148;DHT22;12309;51.450;-2.624;2023-10-13T09:43:52;20.10;99.90
24148;DHT22;12309;51.450;-2.624;2023-10-13T09:46:21;20.20;99.90
24148;DHT22;12309;51.450;-2.624;2023-10-13T09:48:57;20.30;99.90
24148;DHT22;12309;51.450;-2.624;2023-10-13T09:51:30;20.10;99.90
24148;DHT22;12309;51.450;-2.624;2023-10-13T09:54:10;20.20;99.90
24148;DHT22;12309;51.450;-2.624;2023-10-13T09:56:50;20.30;99.90
24148;DHT22;12309;51.450;-2.624;2023-10-13T09:59:32;20.70;99.90
24148;DHT22;12309;51.450;-2.624;2023-10-13T10:02:06;20.60;99.90
24148;DHT22;12309;51.450;-2.624;2023-10-13T10:04:34;20.80;99.90
24148;DHT22;12309;51.450;-2.624;2023-10-13T10:07:10;21.00;99.90
24148;DHT22;12309;51.450;-2.624;2023-10-13T10:17:08;21.60;99.90
24148;DHT22;12309;51.450;-2.624;2023-10-13T10:19:51;21.40;99.90
24148;DHT22;12309;51.450;-2.624;2023-10-13T10:22:31;21.50;99.90
24148;DHT22;12309;51.450;-2.624;2023-10-13T10:25:05;21.80;99.90
24148;DHT22;12309;51.450;-2.624;2023-10-13T10:27:58;21.50;99.90
24148;DHT22;12309;51.450;-2.624;2023-10-13T10:30:27;21.50;99.90
24148;DHT22;12309;51.450;-2.624;2023-10-13T10:32:57;21.30;99.90
24148;DHT22;12309;51.450;-2.624;2023-10-13T10:35:28;21.60;99.90
24148;DHT22;12309;51.450;-2.624;2023-10-13T10:38:16;21.60;99.90
24148;DHT22;12309;51.450;-2.624;2023-10-13T10:40:57;21.40;99.90
24148;DHT22;12309;51.450;-2.624;2023-10-13T10:43:38;21.20;99.90
24148;DHT22;12309;51.450;-2.624;2023-10-13T10:46:14;20.80;99.90
24148;DHT22;12309;51.450;-2.624;2023-10-13T10:48:40;21.00;99.90
24148;DHT22;12309;51.450;-2.624;2023-10-13T10:51:13;21.20;99.90
24148;DHT22;12309;51.450;-2.624;2023-10-13T10:56:15;21.40;99.90
24148;DHT22;12309;51.450;-2.624;2023-10-13T10:58:55;21.70;99.90
24148;DHT22;12309;51.450;-2.624;2023-10-13T11:01:26;21.60;99.90
24148;DHT22;12309;51.450;-2.624;2023-10-13T11:06:26;24.00;99.90
24148;DHT22;12309;51.450;-2.624;2023-10-13T11:09:05;24.20;99.90
24148;DHT22;12309;51.450;-2.624;2023-10-13T11:11:45;25.40;99.90
24148;DHT22;12309;51.450;-2.624;2023-10-13T11:14:27;25.60;99.90
24148;DHT22;12309;51.450;-2.624;2023-10-13T11:16:55;26.40;1.00
24148;DHT22;12309;51.450;-2.624;2023-10-13T11:19:41;24.40;99.90
24148;DHT22;12309;51.450;-2.624;2023-10-13T11:22:21;23.10;99.90
24148;DHT22;12309;51.450;-2.624;2023-10-13T11:25:05;22.70;99.90
24148;DHT22;12309;51.450;-2.624;2023-10-13T11:27:41;20.80;1.00
24148;DHT22;12309;51.450;-2.624;2023-10-13T11:30:19;21.60;99.90
24148;DHT22;12309;51.450;-2.624;2023-10-13T11:33:05;21.00;99.90
24148;DHT22;12309;51.450;-2.624;2023-10-13T11:35:35;20.40;99.90
24148;DHT22;12309;51.450;-2.624;2023-10-13T11:38:32;20.00;99.90
24148;DHT22;12309;51.450;-2.624;2023-10-13T11:41:15;19.90;99.90
24148;DHT22;12309;51.450;-2.624;2023-10-13T11:43:43;19.70;99.90
24148;DHT22;12309;51.450;-2.624;2023-10-13T11:46:10;19.90;99.90
24148;DHT22;12309;51.450;-2.624;2023-10-13T11:48:36;20.60;99.90
24148;DHT22;12309;51.450;-2.624;2023-10-13T11:51:03;20.90;99.90
24148;DHT22;12309;51.450;-2.624;2023-10-13T11:53:38;24.10;16.70
24148;DHT22;12309;51.450;-2.624;2023-10-13T11:56:04;23.90;1.00
24148;DHT22;12309;51.450;-2.624;2023-10-13T11:58:40;22.90;72.50
24148;DHT22;12309;51.450;-2.624;2023-10-13T12:01:06;22.00;99.90
24148;DHT22;12309;51.450;-2.624;2023-10-13T12:03:38;21.90;1.00
24148;DHT22;12309;51.450;-2.624;2023-10-13T12:06:22;21.40;1.00
24148;DHT22;12309;51.450;-2.624;2023-10-13T12:08:59;20.60;99.90
24148;DHT22;12309;51.450;-2.624;2023-10-13T12:11:37;20.60;99.90
24148;DHT22;12309;51.450;-2.624;2023-10-13T12:14:10;20.50;99.90
24148;DHT22;12309;51.450;-2.624;2023-10-13T12:16:49;20.40;99.90
24148;DHT22;12309;51.450;-2.624;2023-10-13T12:19:22;20.10;99.90
24148;DHT22;12309;51.450;-2.624;2023-10-13T12:21:55;20.10;99.90
24148;DHT22;12309;51.450;-2.624;2023-10-13T12:24:26;20.10;99.90
24148;DHT22;12309;51.450;-2.624;2023-10-13T12:27:02;20.10;99.90
24148;DHT22;12309;51.450;-2.624;2023-10-13T12:29:28;20.20;99.90
24148;DHT22;12309;51.450;-2.624;2023-10-13T12:31:57;20.40;99.90
24148;DHT22;12309;51.450;-2.624;2023-10-13T12:34:37;20.60;99.90
24148;DHT22;12309;51.450;-2.624;2023-10-13T12:37:30;20.60;99.90
24148;DHT22;12309;51.450;-2.624;2023-10-13T12:40:07;20.50;99.90
24148;DHT22;12309;51.450;-2.624;2023-10-13T12:42:51;20.60;99.90
24148;DHT22;12309;51.450;-2.624;2023-10-13T12:45:40;20.60;99.90
24148;DHT22;12309;51.450;-2.624;2023-10-13T12:48:24;20.40;99.90
24148;DHT22;12309;51.450;-2.624;2023-10-13T12:51:08;20.30;99.90
24148;DHT22;12309;51.450;-2.624;2023-10-13T12:53:54;20.00;99.90
24148;DHT22;12309;51.450;-2.624;2023-10-13T12:56:20;20.00;99.90
24148;DHT22;12309;51.450;-2.624;2023-10-13T12:58:53;19.80;99.90
24148;DHT22;12309;51.450;-2.624;2023-10-13T13:01:20;19.70;99.90
24148;DHT22;12309;51.450;-2.624;2023-10-13T13:03:47;19.70;99.90
24148;DHT22;12309;51.450;-2.624;2023-10-13T13:06:23;19.60;99.90
24148;DHT22;12309;51.450;-2.624;2023-10-13T13:08:57;19.10;99.90
24148;DHT22;12309;51.450;-2.624;2023-10-13T13:11:23;19.10;99.90
24148;DHT22;12309;51.450;-2.624;2023-10-13T13:13:49;19.20;99.90
24148;DHT22;12309;51.450;-2.624;2023-10-13T13:16:15;18.90;99.90
24148;DHT22;12309;51.450;-2.624;2023-10-13T13:18:43;18.70;99.90
24148;DHT22;12309;51.450;-2.624;2023-10-13T13:21:09;18.60;99.90
24148;DHT22;12309;51.450;-2.624;2023-10-13T13:23:37;18.50;99.90
24148;DHT22;12309;51.450;-2.624;2023-10-13T13:26:05;18.40;99.90
24148;DHT22;12309;51.450;-2.624;2023-10-13T13:28:42;18.40;99.90
24148;DHT22;12309;51.450;-2.624;2023-10-13T13:31:08;18.30;99.90
24148;DHT22;12309;51.450;-2.624;2023-10-13T13:33:34;18.20;99.90
24148;DHT22;12309;51.450;-2.624;2023-10-13T13:36:05;18.00;99.90
24148;DHT22;12309;51.450;-2.624;2023-10-13T13:38:30;18.20;99.90
24148;DHT22;12309;51.450;-2.624;2023-10-13T13:40:58;18.00;99.90
24148;DHT22;12309;51.450;-2.624;2023-10-13T13:43:24;18.00;99.90
24148;DHT22;12309;51.450;-2.624;2023-10-13T13:46:09;18.60;99.90
24148;DHT22;12309;51.450;-2.624;2023-10-13T13:48:38;17.90;99.90
24148;DHT22;12309;51.450;-2.624;2023-10-13T13:51:05;17.90;99.90
24148;DHT22;12309;51.450;-2.624;2023-10-13T13:53:37;17.90;99.90
24148;DHT22;12309;51.450;-2.624;2023-10-13T13:56:08;17.90;99.90
24148;DHT22;12309;51.450;-2.624;2023-10-13T13:58:34;17.80;99.90
24148;DHT22;12309;51.450;-2.624;2023-10-13T14:01:01;17.60;99.90
24148;DHT22;12309;51.450;-2.624;2023-10-13T14:03:37;17.50;99.90
24148;DHT22;12309;51.450;-2.624;2023-10-13T14:06:10;17.30;99.90
24148;DHT22;12309;51.450;-2.624;2023-10-13T14:08:42;17.30;99.90
24148;DHT22;12309;51.450;-2.624;2023-10-13T14:11:10;17.30;99.90
24148;DHT22;12309;51.450;-2.624;2023-10-13T14:13:39;17.30;99.90
24148;DHT22;12309;51.450;-2.624;2023-10-13T14:16:15;17.30;99.90
24148;DHT22;12309;51.450;-2.624;2023-10-13T14:18:45;17.30;99.90
24148;DHT22;12309;51.450;-2.624;2023-10-13T14:21:12;17.20;99.90
24148;DHT22;12309;51.450;-2.624;2023-10-13T14:23:47;18.00;99.90
24148;DHT22;12309;51.450;-2.624;2023-10-13T14:26:16;17.20;99.90
24148;DHT22;12309;51.450;-2.624;2023-10-13T14:28:51;17.20;99.90
24148;DHT22;12309;51.450;-2.624;2023-10-13T14:31:27;17.10;99.90
24148;DHT22;12309;51.450;-2.624;2023-10-13T14:33:52;17.10;99.90
24148;DHT22;12309;51.450;-2.624;2023-10-13T14:36:19;16.90;99.90
24148;DHT22;12309;51.450;-2.624;2023-10-13T14:38:48;16.90;99.90
24148;DHT22;12309;51.450;-2.624;2023-10-13T14:41:17;14.80;99.90
24148;DHT22;12309;51.450;-2.624;2023-10-13T14:43:44;16.90;99.90
24148;DHT22;12309;51.450;-2.624;2023-10-13T14:46:16;16.90;99.90
24148;DHT22;12309;51.450;-2.624;2023-10-13T14:48:43;17.00;99.90
24148;DHT22;12309;51.450;-2.624;2023-10-13T14:51:10;17.00;99.90
24148;DHT22;12309;51.450;-2.624;2023-10-13T14:53:39;17.00;99.90
24148;DHT22;12309;51.450;-2.624;2023-10-13T14:56:12;17.00;99.90
24148;DHT22;12309;51.450;-2.624;2023-10-13T14:58:39;16.90;99.90
24148;DHT22;12309;51.450;-2.624;2023-10-13T15:01:19;16.90;99.90
24148;DHT22;12309;51.450;-2.624;2023-10-13T15:03:47;16.80;99.90
24148;DHT22;12309;51.450;-2.624;2023-10-13T15:06:19;16.90;99.90
24148;DHT22;12309;51.450;-2.624;2023-10-13T15:08:52;16.70;99.90
24148;DHT22;12309;51.450;-2.624;2023-10-13T15:11:20;16.70;99.90
24148;DHT22;12309;51.450;-2.624;2023-10-13T15:13:46;16.60;99.90
24148;DHT22;12309;51.450;-2.624;2023-10-13T15:16:16;16.60;99.90
24148;DHT22;12309;51.450;-2.624;2023-10-13T15:18:46;16.50;99.90
24148;DHT22;12309;51.450;-2.624;2023-10-13T15:21:25;16.50;99.90
24148;DHT22;12309;51.450;-2.624;2023-10-13T15:23:55;16.40;99.90
24148;DHT22;12309;51.450;-2.624;2023-10-13T15:26:25;16.40;99.90
24148;DHT22;12309;51.450;-2.624;2023-10-13T15:28:51;16.40;99.90
24148;DHT22;12309;51.450;-2.624;2023-10-13T15:31:21;16.30;99.90
24148;DHT22;12309;51.450;-2.624;2023-10-13T15:34:04;16.20;99.90
24148;DHT22;12309;51.450;-2.624;2023-10-13T15:36:41;15.90;99.90
24148;DHT22;12309;51.450;-2.624;2023-10-13T15:39:08;15.80;99.90
24148;DHT22;12309;51.450;-2.624;2023-10-13T15:41:36;15.70;99.90
24148;DHT22;12309;51.450;-2.624;2023-10-13T15:44:04;15.30;99.90
24148;DHT22;12309;51.450;-2.624;2023-10-13T15:46:35;15.20;99.90
24148;DHT22;12309;51.450;-2.624;2023-10-13T15:49:01;15.40;99.90
24148;DHT22;12309;51.450;-2.624;2023-10-13T15:51:28;14.90;99.90
24148;DHT22;12309;51.450;-2.624;2023-10-13T15:53:55;14.90;99.90
24148;DHT22;12309;51.450;-2.624;2023-10-13T15:56:21;14.70;99.90
24148;DHT22;12309;51.450;-2.624;2023-10-13T15:58:47;14.80;99.90
24148;DHT22;12309;51.450;-2.624;2023-10-13T16:01:14;14.80;99.90
24148;DHT22;12309;51.450;-2.624;2023-10-13T16:03:40;14.70;99.90
24148;DHT22;12309;51.450;-2.624;2023-10-13T16:06:12;14.70;99.90
24148;DHT22;12309;51.450;-2.624;2023-10-13T16:08:39;14.70;99.90
24148;DHT22;12309;51.450;-2.624;2023-10-13T16:11:09;14.70;99.90
24148;DHT22;12309;51.450;-2.624;2023-10-13T16:13:42;14.60;99.90
24148;DHT22;12309;51.450;-2.624;2023-10-13T16:16:22;14.60;99.90
24148;DHT22;12309;51.450;-2.624;2023-10-13T16:18:51;14.50;99.90
24148;DHT22;12309;51.450;-2.624;2023-10-13T16:21:17;14.40;99.90
24148;DHT22;12309;51.450;-2.624;2023-10-13T16:23:45;14.50;99.90
24148;DHT22;12309;51.450;-2.624;2023-10-13T16:26:16;14.60;99.90
24148;DHT22;12309;51.450;-2.624;2023-10-13T16:28:42;14.50;99.90
24148;DHT22;12309;51.450;-2.624;2023-10-13T16:31:08;14.50;99.90
24148;DHT22;12309;51.450;-2.624;2023-10-13T16:33:37;14.60;99.90
24148;DHT22;12309;51.450;-2.624;2023-10-13T16:36:06;14.50;99.90
24148;DHT22;12309;51.450;-2.624;2023-10-13T16:38:35;14.40;99.90
24148;DHT22;12309;51.450;-2.624;2023-10-13T16:41:01;14.40;99.90
24148;DHT22;12309;51.450;-2.624;2023-10-13T16:43:32;14.50;99.90